Terminal Aerodrome Forecast
Issued by NWS

Home | Current Version | Previous Version | Text Only | Print | Product List | Glossary On
Versions: 1 2 3 4 5 6 7 8 9 10 11 12 13 14 15 16 17 18 19 20 21 22 23 24 25 26 27 28 29 30 31 32
000
FTUS43 KGLD 031405 AAA
TAFMCK
TAF AMD
KMCK 031405Z 0314/0412 31010KT 4SM BR SCT010 OVC020
     FM031500 35020G30KT 6SM BR BKN015
     FM032100 01015G25KT P6SM BKN035
     FM040300 02011KT P6SM VCSH OVC035
     FM040600 02008KT 5SM -SN BKN015=

USA.gov is the U.S. government's official web portal to all federal, state and local government web resources and services.